sensor_id;sensor_type;location;lat;lon;timestamp;P1;durP1;ratioP1;P2;durP2;ratioP2
72261;SDS011;60173;52.112;8.648;2022-10-15T00:00:13;47.28;;;29.42;;
72261;SDS011;60173;52.112;8.648;2022-10-15T00:02:40;51.60;;;31.75;;
72261;SDS011;60173;52.112;8.648;2022-10-15T00:05:06;59.17;;;33.00;;
72261;SDS011;60173;52.112;8.648;2022-10-15T00:07:33;50.97;;;31.88;;
72261;SDS011;60173;52.112;8.648;2022-10-15T00:09:59;62.83;;;35.47;;
72261;SDS011;60173;52.112;8.648;2022-10-15T00:12:25;55.55;;;34.05;;
72261;SDS011;60173;52.112;8.648;2022-10-15T00:14:52;57.58;;;33.03;;
72261;SDS011;60173;52.112;8.648;2022-10-15T00:17:19;56.40;;;32.53;;
72261;SDS011;60173;52.112;8.648;2022-10-15T00:19:45;58.42;;;34.42;;
72261;SDS011;60173;52.112;8.648;2022-10-15T00:22:12;59.42;;;33.88;;
72261;SDS011;60173;52.112;8.648;2022-10-15T00:24:38;57.13;;;33.55;;
72261;SDS011;60173;52.112;8.648;2022-10-15T00:27:04;63.28;;;36.15;;
72261;SDS011;60173;52.112;8.648;2022-10-15T00:29:31;67.25;;;37.05;;
72261;SDS011;60173;52.112;8.648;2022-10-15T00:31:57;65.68;;;37.03;;
72261;SDS011;60173;52.112;8.648;2022-10-15T00:34:23;56.22;;;31.20;;
72261;SDS011;60173;52.112;8.648;2022-10-15T00:36:50;61.55;;;32.45;;
72261;SDS011;60173;52.112;8.648;2022-10-15T00:39:16;64.55;;;35.42;;
72261;SDS011;60173;52.112;8.648;2022-10-15T00:41:43;64.07;;;34.90;;
72261;SDS011;60173;52.112;8.648;2022-10-15T00:46:46;54.85;;;32.38;;
72261;SDS011;60173;52.112;8.648;2022-10-15T00:49:17;63.35;;;34.40;;
72261;SDS011;60173;52.112;8.648;2022-10-15T00:51:53;60.17;;;32.53;;
72261;SDS011;60173;52.112;8.648;2022-10-15T00:54:23;69.20;;;33.25;;
72261;SDS011;60173;52.112;8.648;2022-10-15T00:56:52;61.05;;;34.65;;
72261;SDS011;60173;52.112;8.648;2022-10-15T00:59:21;65.00;;;35.92;;
72261;SDS011;60173;52.112;8.648;2022-10-15T01:01:52;66.65;;;35.78;;
72261;SDS011;60173;52.112;8.648;2022-10-15T01:04:19;73.55;;;38.22;;
72261;SDS011;60173;52.112;8.648;2022-10-15T01:06:46;72.35;;;36.30;;
72261;SDS011;60173;52.112;8.648;2022-10-15T01:09:12;80.20;;;37.95;;
72261;SDS011;60173;52.112;8.648;2022-10-15T01:11:46;72.38;;;36.25;;
72261;SDS011;60173;52.112;8.648;2022-10-15T01:23:26;82.70;;;38.33;;
72261;SDS011;60173;52.112;8.648;2022-10-15T01:29:28;80.32;;;36.53;;
72261;SDS011;60173;52.112;8.648;2022-10-15T01:32:27;83.03;;;36.83;;
72261;SDS011;60173;52.112;8.648;2022-10-15T01:37:37;88.32;;;38.33;;
72261;SDS011;60173;52.112;8.648;2022-10-15T01:40:13;80.22;;;36.97;;
72261;SDS011;60173;52.112;8.648;2022-10-15T01:45:27;80.25;;;36.17;;
72261;SDS011;60173;52.112;8.648;2022-10-15T01:48:00;85.70;;;38.42;;
72261;SDS011;60173;52.112;8.648;2022-10-15T01:50:31;74.78;;;35.08;;
72261;SDS011;60173;52.112;8.648;2022-10-15T01:53:00;75.63;;;34.78;;
72261;SDS011;60173;52.112;8.648;2022-10-15T01:55:30;83.38;;;36.97;;
72261;SDS011;60173;52.112;8.648;2022-10-15T01:57:59;69.80;;;31.50;;
72261;SDS011;60173;52.112;8.648;2022-10-15T02:00:28;70.85;;;31.13;;
72261;SDS011;60173;52.112;8.648;2022-10-15T02:02:58;74.50;;;32.03;;
72261;SDS011;60173;52.112;8.648;2022-10-15T02:05:28;67.43;;;31.55;;
72261;SDS011;60173;52.112;8.648;2022-10-15T02:16:11;65.95;;;31.33;;
72261;SDS011;60173;52.112;8.648;2022-10-15T02:21:34;50.15;;;24.45;;
72261;SDS011;60173;52.112;8.648;2022-10-15T02:24:13;45.38;;;22.52;;
72261;SDS011;60173;52.112;8.648;2022-10-15T02:26:42;32.35;;;18.70;;
72261;SDS011;60173;52.112;8.648;2022-10-15T02:29:12;51.33;;;22.95;;
72261;SDS011;60173;52.112;8.648;2022-10-15T02:31:46;90.03;;;37.10;;
72261;SDS011;60173;52.112;8.648;2022-10-15T02:34:16;64.47;;;31.95;;
72261;SDS011;60173;52.112;8.648;2022-10-15T02:36:46;97.00;;;39.78;;
72261;SDS011;60173;52.112;8.648;2022-10-15T02:39:14;81.75;;;36.50;;
72261;SDS011;60173;52.112;8.648;2022-10-15T02:41:45;90.60;;;38.95;;
72261;SDS011;60173;52.112;8.648;2022-10-15T02:44:12;97.18;;;41.78;;
72261;SDS011;60173;52.112;8.648;2022-10-15T02:46:39;142.40;;;30.00;;
72261;SDS011;60173;52.112;8.648;2022-10-15T02:49:06;84.47;;;35.17;;
72261;SDS011;60173;52.112;8.648;2022-10-15T02:51:33;95.60;;;40.67;;
72261;SDS011;60173;52.112;8.648;2022-10-15T02:54:01;81.72;;;33.58;;
72261;SDS011;60173;52.112;8.648;2022-10-15T02:56:29;82.65;;;37.40;;
72261;SDS011;60173;52.112;8.648;2022-10-15T02:59:00;104.60;;;41.35;;
72261;SDS011;60173;52.112;8.648;2022-10-15T03:01:27;80.40;;;34.75;;
72261;SDS011;60173;52.112;8.648;2022-10-15T03:03:53;89.57;;;38.65;;
72261;SDS011;60173;52.112;8.648;2022-10-15T03:06:19;84.70;;;37.90;;
72261;SDS011;60173;52.112;8.648;2022-10-15T03:08:46;83.65;;;36.60;;
72261;SDS011;60173;52.112;8.648;2022-10-15T03:11:12;101.95;;;40.78;;
72261;SDS011;60173;52.112;8.648;2022-10-15T03:13:38;83.32;;;36.30;;
72261;SDS011;60173;52.112;8.648;2022-10-15T03:16:05;79.93;;;34.72;;
72261;SDS011;60173;52.112;8.648;2022-10-15T03:18:33;75.03;;;34.28;;
72261;SDS011;60173;52.112;8.648;2022-10-15T03:21:04;96.45;;;38.63;;
72261;SDS011;60173;52.112;8.648;2022-10-15T03:23:31;88.47;;;36.45;;
72261;SDS011;60173;52.112;8.648;2022-10-15T03:25:58;77.95;;;35.10;;
72261;SDS011;60173;52.112;8.648;2022-10-15T03:28:25;73.47;;;33.38;;
72261;SDS011;60173;52.112;8.648;2022-10-15T03:30:51;82.95;;;36.55;;
72261;SDS011;60173;52.112;8.648;2022-10-15T03:33:18;82.82;;;36.97;;
72261;SDS011;60173;52.112;8.648;2022-10-15T03:35:48;74.25;;;34.95;;
72261;SDS011;60173;52.112;8.648;2022-10-15T03:38:14;71.70;;;34.22;;
72261;SDS011;60173;52.112;8.648;2022-10-15T03:40:40;71.70;;;33.38;;
72261;SDS011;60173;52.112;8.648;2022-10-15T03:43:08;66.90;;;32.72;;
72261;SDS011;60173;52.112;8.648;2022-10-15T03:45:35;65.75;;;32.92;;
72261;SDS011;60173;52.112;8.648;2022-10-15T03:48:01;68.00;;;32.38;;
72261;SDS011;60173;52.112;8.648;2022-10-15T03:50:27;62.45;;;30.40;;
72261;SDS011;60173;52.112;8.648;2022-10-15T03:52:54;63.55;;;31.40;;
72261;SDS011;60173;52.112;8.648;2022-10-15T03:55:20;66.97;;;33.47;;
72261;SDS011;60173;52.112;8.648;2022-10-15T03:57:46;54.65;;;28.60;;
72261;SDS011;60173;52.112;8.648;2022-10-15T04:00:13;64.35;;;31.52;;
72261;SDS011;60173;52.112;8.648;2022-10-15T04:02:39;62.70;;;29.95;;
72261;SDS011;60173;52.112;8.648;2022-10-15T04:05:06;62.67;;;30.27;;
72261;SDS011;60173;52.112;8.648;2022-10-15T04:07:32;74.03;;;32.85;;
72261;SDS011;60173;52.112;8.648;2022-10-15T04:09:59;75.38;;;33.10;;
72261;SDS011;60173;52.112;8.648;2022-10-15T04:12:25;67.88;;;30.80;;
72261;SDS011;60173;52.112;8.648;2022-10-15T04:14:52;63.10;;;28.55;;
72261;SDS011;60173;52.112;8.648;2022-10-15T04:17:18;59.35;;;29.05;;
72261;SDS011;60173;52.112;8.648;2022-10-15T04:19:44;67.13;;;31.05;;
72261;SDS011;60173;52.112;8.648;2022-10-15T04:22:11;65.72;;;31.38;;
72261;SDS011;60173;52.112;8.648;2022-10-15T04:24:37;61.08;;;31.60;;
72261;SDS011;60173;52.112;8.648;2022-10-15T04:27:03;62.13;;;29.67;;
72261;SDS011;60173;52.112;8.648;2022-10-15T04:29:30;66.07;;;31.10;;
72261;SDS011;60173;52.112;8.648;2022-10-15T04:31:56;59.72;;;29.48;;
72261;SDS011;60173;52.112;8.648;2022-10-15T04:34:22;238.38;;;35.72;;
72261;SDS011;60173;52.112;8.648;2022-10-15T04:36:49;59.05;;;28.70;;
72261;SDS011;60173;52.112;8.648;2022-10-15T04:39:15;55.45;;;27.17;;
72261;SDS011;60173;52.112;8.648;2022-10-15T04:41:42;62.92;;;28.98;;
72261;SDS011;60173;52.112;8.648;2022-10-15T04:44:08;104.13;;;32.60;;
72261;SDS011;60173;52.112;8.648;2022-10-15T04:46:35;60.80;;;30.02;;
72261;SDS011;60173;52.112;8.648;2022-10-15T04:49:01;67.22;;;31.13;;
72261;SDS011;60173;52.112;8.648;2022-10-15T04:51:28;62.35;;;30.35;;
72261;SDS011;60173;52.112;8.648;2022-10-15T04:53:54;64.97;;;30.70;;
72261;SDS011;60173;52.112;8.648;2022-10-15T04:56:21;57.53;;;29.85;;
72261;SDS011;60173;52.112;8.648;2022-10-15T04:58:48;55.95;;;28.70;;
72261;SDS011;60173;52.112;8.648;2022-10-15T05:01:18;59.80;;;29.70;;
72261;SDS011;60173;52.112;8.648;2022-10-15T05:03:46;50.85;;;27.80;;
72261;SDS011;60173;52.112;8.648;2022-10-15T05:06:17;48.00;;;26.75;;
72261;SDS011;60173;52.112;8.648;2022-10-15T05:08:45;56.55;;;29.58;;
72261;SDS011;60173;52.112;8.648;2022-10-15T05:11:13;52.50;;;27.42;;
72261;SDS011;60173;52.112;8.648;2022-10-15T05:13:41;66.07;;;29.52;;
72261;SDS011;60173;52.112;8.648;2022-10-15T05:16:09;49.97;;;26.38;;
72261;SDS011;60173;52.112;8.648;2022-10-15T05:18:39;54.03;;;27.27;;
72261;SDS011;60173;52.112;8.648;2022-10-15T05:21:06;56.85;;;28.55;;
72261;SDS011;60173;52.112;8.648;2022-10-15T05:23:33;57.38;;;28.98;;
72261;SDS011;60173;52.112;8.648;2022-10-15T05:26:00;65.45;;;31.05;;
72261;SDS011;60173;52.112;8.648;2022-10-15T05:28:28;56.20;;;28.02;;
72261;SDS011;60173;52.112;8.648;2022-10-15T05:30:55;54.55;;;26.77;;
72261;SDS011;60173;52.112;8.648;2022-10-15T05:33:21;70.25;;;30.33;;
72261;SDS011;60173;52.112;8.648;2022-10-15T05:35:48;51.28;;;26.55;;
72261;SDS011;60173;52.112;8.648;2022-10-15T05:38:14;53.72;;;27.02;;
72261;SDS011;60173;52.112;8.648;2022-10-15T05:40:40;57.20;;;26.95;;
72261;SDS011;60173;52.112;8.648;2022-10-15T05:43:13;53.70;;;26.75;;
72261;SDS011;60173;52.112;8.648;2022-10-15T05:45:39;52.30;;;26.17;;
72261;SDS011;60173;52.112;8.648;2022-10-15T05:48:06;52.85;;;26.63;;
72261;SDS011;60173;52.112;8.648;2022-10-15T05:50:32;49.25;;;26.20;;
72261;SDS011;60173;52.112;8.648;2022-10-15T05:52:58;57.38;;;27.40;;
72261;SDS011;60173;52.112;8.648;2022-10-15T05:55:25;52.33;;;25.60;;
72261;SDS011;60173;52.112;8.648;2022-10-15T05:57:51;66.20;;;29.17;;
72261;SDS011;60173;52.112;8.648;2022-10-15T06:00:18;55.45;;;26.83;;
72261;SDS011;60173;52.112;8.648;2022-10-15T06:02:44;55.58;;;27.00;;
72261;SDS011;60173;52.112;8.648;2022-10-15T06:05:12;62.97;;;29.35;;
72261;SDS011;60173;52.112;8.648;2022-10-15T06:07:38;65.30;;;29.40;;
72261;SDS011;60173;52.112;8.648;2022-10-15T06:10:05;61.63;;;27.92;;
72261;SDS011;60173;52.112;8.648;2022-10-15T06:12:31;51.38;;;26.08;;
72261;SDS011;60173;52.112;8.648;2022-10-15T06:14:58;53.40;;;25.55;;
72261;SDS011;60173;52.112;8.648;2022-10-15T06:17:24;64.90;;;29.23;;
72261;SDS011;60173;52.112;8.648;2022-10-15T06:19:51;58.17;;;26.83;;
72261;SDS011;60173;52.112;8.648;2022-10-15T06:22:17;58.38;;;27.00;;
72261;SDS011;60173;52.112;8.648;2022-10-15T06:24:43;55.70;;;25.88;;
72261;SDS011;60173;52.112;8.648;2022-10-15T06:27:10;57.05;;;26.85;;
72261;SDS011;60173;52.112;8.648;2022-10-15T06:29:36;63.40;;;29.92;;
72261;SDS011;60173;52.112;8.648;2022-10-15T06:32:03;61.13;;;28.23;;
72261;SDS011;60173;52.112;8.648;2022-10-15T06:34:29;70.20;;;30.80;;
72261;SDS011;60173;52.112;8.648;2022-10-15T06:36:55;73.50;;;31.80;;
72261;SDS011;60173;52.112;8.648;2022-10-15T06:39:22;68.28;;;31.98;;
72261;SDS011;60173;52.112;8.648;2022-10-15T06:41:48;69.00;;;30.75;;
72261;SDS011;60173;52.112;8.648;2022-10-15T06:44:14;57.92;;;29.17;;
72261;SDS011;60173;52.112;8.648;2022-10-15T06:46:41;62.78;;;30.90;;
72261;SDS011;60173;52.112;8.648;2022-10-15T06:49:07;64.82;;;31.20;;
72261;SDS011;60173;52.112;8.648;2022-10-15T06:51:33;66.97;;;31.77;;
72261;SDS011;60173;52.112;8.648;2022-10-15T06:54:00;67.72;;;30.13;;
72261;SDS011;60173;52.112;8.648;2022-10-15T06:56:26;69.18;;;32.15;;
72261;SDS011;60173;52.112;8.648;2022-10-15T06:58:52;75.07;;;34.30;;
72261;SDS011;60173;52.112;8.648;2022-10-15T07:01:19;68.40;;;32.67;;
72261;SDS011;60173;52.112;8.648;2022-10-15T07:03:48;71.03;;;32.33;;
72261;SDS011;60173;52.112;8.648;2022-10-15T07:06:15;91.22;;;37.80;;
72261;SDS011;60173;52.112;8.648;2022-10-15T07:08:42;80.78;;;35.33;;
72261;SDS011;60173;52.112;8.648;2022-10-15T07:11:09;79.55;;;35.63;;
72261;SDS011;60173;52.112;8.648;2022-10-15T07:13:36;73.80;;;32.67;;
72261;SDS011;60173;52.112;8.648;2022-10-15T07:16:06;76.50;;;34.00;;
72261;SDS011;60173;52.112;8.648;2022-10-15T07:18:34;77.53;;;35.35;;
72261;SDS011;60173;52.112;8.648;2022-10-15T07:21:02;74.40;;;34.78;;
72261;SDS011;60173;52.112;8.648;2022-10-15T07:23:29;64.20;;;30.42;;
72261;SDS011;60173;52.112;8.648;2022-10-15T07:25:56;67.93;;;31.50;;
72261;SDS011;60173;52.112;8.648;2022-10-15T07:28:23;79.20;;;34.95;;
72261;SDS011;60173;52.112;8.648;2022-10-15T07:30:50;79.50;;;36.45;;
72261;SDS011;60173;52.112;8.648;2022-10-15T07:33:17;101.90;;;40.83;;
72261;SDS011;60173;52.112;8.648;2022-10-15T07:35:44;87.35;;;39.28;;
72261;SDS011;60173;52.112;8.648;2022-10-15T07:38:10;90.55;;;39.00;;
72261;SDS011;60173;52.112;8.648;2022-10-15T07:40:36;107.10;;;43.35;;
72261;SDS011;60173;52.112;8.648;2022-10-15T07:43:03;92.70;;;37.88;;
72261;SDS011;60173;52.112;8.648;2022-10-15T07:45:29;92.32;;;39.35;;
72261;SDS011;60173;52.112;8.648;2022-10-15T07:47:56;113.68;;;43.75;;
72261;SDS011;60173;52.112;8.648;2022-10-15T07:50:22;102.60;;;41.92;;
72261;SDS011;60173;52.112;8.648;2022-10-15T07:52:48;97.00;;;40.33;;
72261;SDS011;60173;52.112;8.648;2022-10-15T07:55:15;90.80;;;38.40;;
72261;SDS011;60173;52.112;8.648;2022-10-15T07:57:41;98.00;;;40.00;;
72261;SDS011;60173;52.112;8.648;2022-10-15T08:00:08;93.68;;;37.63;;
72261;SDS011;60173;52.112;8.648;2022-10-15T08:02:34;91.80;;;38.67;;
72261;SDS011;60173;52.112;8.648;2022-10-15T08:05:01;109.70;;;43.50;;
72261;SDS011;60173;52.112;8.648;2022-10-15T08:07:27;116.63;;;45.85;;
72261;SDS011;60173;52.112;8.648;2022-10-15T08:09:53;107.30;;;43.20;;
72261;SDS011;60173;52.112;8.648;2022-10-15T08:12:20;107.63;;;43.63;;
72261;SDS011;60173;52.112;8.648;2022-10-15T08:14:46;109.88;;;42.72;;
72261;SDS011;60173;52.112;8.648;2022-10-15T08:17:13;104.00;;;41.67;;
72261;SDS011;60173;52.112;8.648;2022-10-15T08:19:39;121.50;;;45.58;;
72261;SDS011;60173;52.112;8.648;2022-10-15T08:22:05;111.05;;;42.47;;
72261;SDS011;60173;52.112;8.648;2022-10-15T08:24:32;110.65;;;45.95;;
72261;SDS011;60173;52.112;8.648;2022-10-15T08:26:58;108.40;;;45.17;;
72261;SDS011;60173;52.112;8.648;2022-10-15T08:29:25;117.03;;;47.95;;
72261;SDS011;60173;52.112;8.648;2022-10-15T08:31:51;112.30;;;47.85;;
72261;SDS011;60173;52.112;8.648;2022-10-15T08:34:17;116.47;;;46.80;;
72261;SDS011;60173;52.112;8.648;2022-10-15T08:36:43;111.68;;;50.72;;
72261;SDS011;60173;52.112;8.648;2022-10-15T08:39:10;94.82;;;45.42;;
72261;SDS011;60173;52.112;8.648;2022-10-15T08:41:56;110.28;;;50.92;;
72261;SDS011;60173;52.112;8.648;2022-10-15T08:45:00;102.70;;;48.03;;
72261;SDS011;60173;52.112;8.648;2022-10-15T08:47:30;99.15;;;46.97;;
72261;SDS011;60173;52.112;8.648;2022-10-15T08:50:05;95.63;;;45.13;;
72261;SDS011;60173;52.112;8.648;2022-10-15T08:52:47;87.82;;;44.30;;
72261;SDS011;60173;52.112;8.648;2022-10-15T08:55:16;94.85;;;45.78;;
72261;SDS011;60173;52.112;8.648;2022-10-15T08:57:46;100.30;;;48.85;;
72261;SDS011;60173;52.112;8.648;2022-10-15T09:00:27;83.50;;;45.55;;
72261;SDS011;60173;52.112;8.648;2022-10-15T09:03:08;85.22;;;45.90;;
72261;SDS011;60173;52.112;8.648;2022-10-15T09:05:52;77.30;;;41.72;;
72261;SDS011;60173;52.112;8.648;2022-10-15T09:11:31;67.57;;;39.47;;
72261;SDS011;60173;52.112;8.648;2022-10-15T09:14:00;63.60;;;37.83;;
72261;SDS011;60173;52.112;8.648;2022-10-15T09:16:33;62.17;;;37.72;;
72261;SDS011;60173;52.112;8.648;2022-10-15T09:19:03;61.05;;;37.67;;
72261;SDS011;60173;52.112;8.648;2022-10-15T09:24:03;50.30;;;31.33;;
72261;SDS011;60173;52.112;8.648;2022-10-15T09:34:54;48.75;;;31.42;;
72261;SDS011;60173;52.112;8.648;2022-10-15T09:37:27;45.38;;;28.90;;
72261;SDS011;60173;52.112;8.648;2022-10-15T09:42:44;42.72;;;28.60;;
72261;SDS011;60173;52.112;8.648;2022-10-15T09:45:14;41.80;;;28.58;;
72261;SDS011;60173;52.112;8.648;2022-10-15T09:47:42;39.60;;;25.95;;
72261;SDS011;60173;52.112;8.648;2022-10-15T09:50:10;41.22;;;27.08;;
72261;SDS011;60173;52.112;8.648;2022-10-15T09:52:46;38.55;;;25.05;;
72261;SDS011;60173;52.112;8.648;2022-10-15T09:58:00;34.90;;;24.30;;
72261;SDS011;60173;52.112;8.648;2022-10-15T10:03:30;34.33;;;22.80;;
72261;SDS011;60173;52.112;8.648;2022-10-15T10:06:31;37.15;;;24.08;;
72261;SDS011;60173;52.112;8.648;2022-10-15T10:08:52;30.88;;;21.63;;
72261;SDS011;60173;52.112;8.648;2022-10-15T10:11:21;33.70;;;23.48;;
72261;SDS011;60173;52.112;8.648;2022-10-15T10:13:55;35.70;;;23.52;;
72261;SDS011;60173;52.112;8.648;2022-10-15T10:16:24;31.15;;;22.77;;
72261;SDS011;60173;52.112;8.648;2022-10-15T10:19:08;29.10;;;20.73;;
72261;SDS011;60173;52.112;8.648;2022-10-15T10:21:38;30.38;;;20.73;;
72261;SDS011;60173;52.112;8.648;2022-10-15T10:26:54;29.52;;;20.67;;
72261;SDS011;60173;52.112;8.648;2022-10-15T10:29:22;28.35;;;20.80;;
72261;SDS011;60173;52.112;8.648;2022-10-15T10:32:20;26.92;;;18.17;;
72261;SDS011;60173;52.112;8.648;2022-10-15T10:34:49;28.05;;;20.15;;
72261;SDS011;60173;52.112;8.648;2022-10-15T10:37:18;25.88;;;19.75;;
72261;SDS011;60173;52.112;8.648;2022-10-15T10:39:50;33.13;;;20.67;;
72261;SDS011;60173;52.112;8.648;2022-10-15T10:44:44;22.15;;;16.50;;
72261;SDS011;60173;52.112;8.648;2022-10-15T10:49:50;23.88;;;16.70;;
72261;SDS011;60173;52.112;8.648;2022-10-15T10:52:28;22.50;;;16.20;;
72261;SDS011;60173;52.112;8.648;2022-10-15T10:55:16;23.40;;;16.27;;
72261;SDS011;60173;52.112;8.648;2022-10-15T10:57:49;18.60;;;14.32;;
72261;SDS011;60173;52.112;8.648;2022-10-15T11:00:37;18.90;;;14.38;;
72261;SDS011;60173;52.112;8.648;2022-10-15T11:03:50;17.83;;;13.07;;
72261;SDS011;60173;52.112;8.648;2022-10-15T11:11:11;18.42;;;13.15;;
72261;SDS011;60173;52.112;8.648;2022-10-15T11:16:33;15.13;;;11.30;;
72261;SDS011;60173;52.112;8.648;2022-10-15T11:27:51;18.50;;;12.25;;
72261;SDS011;60173;52.112;8.648;2022-10-15T11:30:36;15.55;;;11.07;;
72261;SDS011;60173;52.112;8.648;2022-10-15T11:47:06;13.15;;;9.18;;
72261;SDS011;60173;52.112;8.648;2022-10-15T11:52:34;11.13;;;7.90;;
72261;SDS011;60173;52.112;8.648;2022-10-15T11:57:37;10.30;;;8.18;;
72261;SDS011;60173;52.112;8.648;2022-10-15T12:03:09;8.88;;;6.47;;
72261;SDS011;60173;52.112;8.648;2022-10-15T12:05:55;10.00;;;6.20;;
72261;SDS011;60173;52.112;8.648;2022-10-15T12:08:27;7.28;;;6.40;;
72261;SDS011;60173;52.112;8.648;2022-10-15T12:14:10;12.70;;;7.35;;
72261;SDS011;60173;52.112;8.648;2022-10-15T12:27:59;6.15;;;4.70;;
72261;SDS011;60173;52.112;8.648;2022-10-15T12:30:29;6.10;;;4.25;;
72261;SDS011;60173;52.112;8.648;2022-10-15T12:32:57;4.70;;;3.65;;
72261;SDS011;60173;52.112;8.648;2022-10-15T12:35:28;12.15;;;4.30;;
72261;SDS011;60173;52.112;8.648;2022-10-15T12:38:17;8.40;;;3.58;;
72261;SDS011;60173;52.112;8.648;2022-10-15T12:40:54;4.25;;;3.50;;
72261;SDS011;60173;52.112;8.648;2022-10-15T12:43:22;5.68;;;3.00;;
72261;SDS011;60173;52.112;8.648;2022-10-15T12:45:50;8.30;;;2.97;;
72261;SDS011;60173;52.112;8.648;2022-10-15T12:53:41;5.13;;;2.95;;
72261;SDS011;60173;52.112;8.648;2022-10-15T12:56:19;4.30;;;2.65;;
72261;SDS011;60173;52.112;8.648;2022-10-15T12:58:52;6.05;;;2.50;;
72261;SDS011;60173;52.112;8.648;2022-10-15T13:08:50;2.92;;;2.30;;
72261;SDS011;60173;52.112;8.648;2022-10-15T13:11:24;5.53;;;2.22;;
72261;SDS011;60173;52.112;8.648;2022-10-15T13:16:52;12.25;;;3.17;;
72261;SDS011;60173;52.112;8.648;2022-10-15T13:19:24;8.80;;;2.72;;
72261;SDS011;60173;52.112;8.648;2022-10-15T13:21:55;6.23;;;2.60;;
72261;SDS011;60173;52.112;8.648;2022-10-15T13:24:25;9.18;;;1.95;;
72261;SDS011;60173;52.112;8.648;2022-10-15T13:26:53;4.28;;;2.17;;
72261;SDS011;60173;52.112;8.648;2022-10-15T13:29:22;4.82;;;1.50;;
72261;SDS011;60173;52.112;8.648;2022-10-15T13:31:50;2.55;;;1.15;;
72261;SDS011;60173;52.112;8.648;2022-10-15T13:34:24;11.63;;;3.97;;
72261;SDS011;60173;52.112;8.648;2022-10-15T13:36:53;1.45;;;1.35;;
72261;SDS011;60173;52.112;8.648;2022-10-15T13:42:06;1.48;;;1.20;;
72261;SDS011;60173;52.112;8.648;2022-10-15T13:44:34;1.50;;;1.40;;
72261;SDS011;60173;52.112;8.648;2022-10-15T13:47:01;4.10;;;1.60;;
72261;SDS011;60173;52.112;8.648;2022-10-15T13:49:27;1.65;;;1.55;;
72261;SDS011;60173;52.112;8.648;2022-10-15T13:51:54;2.90;;;1.40;;
72261;SDS011;60173;52.112;8.648;2022-10-15T13:54:27;1.75;;;1.50;;
72261;SDS011;60173;52.112;8.648;2022-10-15T13:59:24;4.88;;;2.00;;
72261;SDS011;60173;52.112;8.648;2022-10-15T14:01:53;1.55;;;1.38;;
72261;SDS011;60173;52.112;8.648;2022-10-15T14:04:23;1.70;;;1.40;;
72261;SDS011;60173;52.112;8.648;2022-10-15T14:07:03;1.58;;;1.30;;
72261;SDS011;60173;52.112;8.648;2022-10-15T14:09:45;2.25;;;1.33;;
72261;SDS011;60173;52.112;8.648;2022-10-15T14:12:12;6.70;;;1.60;;
72261;SDS011;60173;52.112;8.648;2022-10-15T14:14:40;4.03;;;1.80;;
72261;SDS011;60173;52.112;8.648;2022-10-15T14:17:23;2.60;;;1.48;;
72261;SDS011;60173;52.112;8.648;2022-10-15T14:19:56;2.90;;;1.60;;
72261;SDS011;60173;52.112;8.648;2022-10-15T14:22:47;2.10;;;1.15;;
72261;SDS011;60173;52.112;8.648;2022-10-15T14:25:14;2.10;;;1.23;;
72261;SDS011;60173;52.112;8.648;2022-10-15T14:27:48;1.40;;;1.30;;
72261;SDS011;60173;52.112;8.648;2022-10-15T14:30:19;2.00;;;1.40;;
72261;SDS011;60173;52.112;8.648;2022-10-15T14:32:52;4.70;;;1.50;;
72261;SDS011;60173;52.112;8.648;2022-10-15T14:40:34;4.25;;;1.55;;
72261;SDS011;60173;52.112;8.648;2022-10-15T14:43:16;3.10;;;2.00;;
72261;SDS011;60173;52.112;8.648;2022-10-15T14:48:17;3.58;;;2.08;;
72261;SDS011;60173;52.112;8.648;2022-10-15T14:50:47;3.13;;;2.05;;
72261;SDS011;60173;52.112;8.648;2022-10-15T14:53:18;2.10;;;1.70;;
72261;SDS011;60173;52.112;8.648;2022-10-15T14:55:50;4.13;;;1.90;;
72261;SDS011;60173;52.112;8.648;2022-10-15T14:58:22;2.45;;;1.58;;
72261;SDS011;60173;52.112;8.648;2022-10-15T15:00:57;3.80;;;1.67;;
72261;SDS011;60173;52.112;8.648;2022-10-15T15:03:39;2.65;;;1.52;;
72261;SDS011;60173;52.112;8.648;2022-10-15T15:06:13;4.70;;;1.98;;
72261;SDS011;60173;52.112;8.648;2022-10-15T15:08:40;1.70;;;1.60;;
72261;SDS011;60173;52.112;8.648;2022-10-15T15:11:09;2.10;;;1.67;;
72261;SDS011;60173;52.112;8.648;2022-10-15T15:13:40;2.22;;;1.40;;
72261;SDS011;60173;52.112;8.648;2022-10-15T15:16:11;2.58;;;1.70;;
72261;SDS011;60173;52.112;8.648;2022-10-15T15:18:39;2.45;;;1.65;;
72261;SDS011;60173;52.112;8.648;2022-10-15T15:21:05;5.38;;;1.50;;
72261;SDS011;60173;52.112;8.648;2022-10-15T15:23:35;4.63;;;1.65;;
72261;SDS011;60173;52.112;8.648;2022-10-15T15:26:01;6.03;;;2.40;;
72261;SDS011;60173;52.112;8.648;2022-10-15T15:28:28;4.07;;;2.10;;
72261;SDS011;60173;52.112;8.648;2022-10-15T15:30:55;2.88;;;1.80;;
72261;SDS011;60173;52.112;8.648;2022-10-15T15:33:26;6.20;;;1.92;;
72261;SDS011;60173;52.112;8.648;2022-10-15T15:36:03;2.95;;;1.65;;
72261;SDS011;60173;52.112;8.648;2022-10-15T15:38:30;3.50;;;1.50;;
72261;SDS011;60173;52.112;8.648;2022-10-15T15:41:01;4.47;;;2.60;;
72261;SDS011;60173;52.112;8.648;2022-10-15T15:43:27;5.00;;;2.15;;
72261;SDS011;60173;52.112;8.648;2022-10-15T15:45:54;5.20;;;2.92;;
72261;SDS011;60173;52.112;8.648;2022-10-15T15:48:20;3.30;;;1.60;;
72261;SDS011;60173;52.112;8.648;2022-10-15T15:50:47;6.47;;;2.42;;
72261;SDS011;60173;52.112;8.648;2022-10-15T15:53:13;2.78;;;1.85;;
72261;SDS011;60173;52.112;8.648;2022-10-15T15:55:39;3.05;;;2.42;;
72261;SDS011;60173;52.112;8.648;2022-10-15T15:58:06;7.03;;;2.40;;
72261;SDS011;60173;52.112;8.648;2022-10-15T16:00:32;9.52;;;2.40;;
72261;SDS011;60173;52.112;8.648;2022-10-15T16:02:58;3.88;;;1.80;;
72261;SDS011;60173;52.112;8.648;2022-10-15T16:05:25;4.65;;;1.90;;
72261;SDS011;60173;52.112;8.648;2022-10-15T16:07:51;5.22;;;1.88;;
72261;SDS011;60173;52.112;8.648;2022-10-15T16:10:17;2.42;;;1.48;;
72261;SDS011;60173;52.112;8.648;2022-10-15T16:12:44;3.42;;;1.40;;
72261;SDS011;60173;52.112;8.648;2022-10-15T16:15:10;2.08;;;1.45;;
72261;SDS011;60173;52.112;8.648;2022-10-15T16:17:40;3.78;;;1.58;;
72261;SDS011;60173;52.112;8.648;2022-10-15T16:20:06;6.80;;;1.67;;
72261;SDS011;60173;52.112;8.648;2022-10-15T16:22:33;2.40;;;1.77;;
72261;SDS011;60173;52.112;8.648;2022-10-15T16:25:00;6.20;;;1.80;;
72261;SDS011;60173;52.112;8.648;2022-10-15T16:27:26;3.88;;;2.05;;
72261;SDS011;60173;52.112;8.648;2022-10-15T16:29:53;9.00;;;1.95;;
72261;SDS011;60173;52.112;8.648;2022-10-15T16:32:19;2.83;;;1.85;;
72261;SDS011;60173;52.112;8.648;2022-10-15T16:34:45;2.55;;;1.90;;
72261;SDS011;60173;52.112;8.648;2022-10-15T16:37:12;7.97;;;3.10;;
72261;SDS011;60173;52.112;8.648;2022-10-15T16:39:38;3.63;;;2.30;;
72261;SDS011;60173;52.112;8.648;2022-10-15T16:42:04;2.70;;;2.00;;
72261;SDS011;60173;52.112;8.648;2022-10-15T16:44:31;4.68;;;2.03;;
72261;SDS011;60173;52.112;8.648;2022-10-15T16:46:57;3.78;;;2.17;;
72261;SDS011;60173;52.112;8.648;2022-10-15T16:49:23;6.40;;;2.22;;
72261;SDS011;60173;52.112;8.648;2022-10-15T16:51:50;8.77;;;2.35;;
72261;SDS011;60173;52.112;8.648;2022-10-15T16:54:16;5.10;;;1.85;;
72261;SDS011;60173;52.112;8.648;2022-10-15T16:56:42;4.15;;;1.70;;
72261;SDS011;60173;52.112;8.648;2022-10-15T16:59:12;3.17;;;2.00;;
72261;SDS011;60173;52.112;8.648;2022-10-15T17:01:39;2.20;;;1.77;;
72261;SDS011;60173;52.112;8.648;2022-10-15T17:04:05;3.03;;;1.70;;